sensor_id;sensor_type;location;lat;lon;timestamp;P1;durP1;ratioP1;P2;durP2;ratioP2
61897;SDS011;47850;50.274;18.908;2023-03-31T00:00:53;24.80;;;14.00;;
61897;SDS011;47850;50.274;18.908;2023-03-31T00:03:24;24.80;;;15.70;;
61897;SDS011;47850;50.274;18.908;2023-03-31T00:05:55;23.80;;;14.80;;
61897;SDS011;47850;50.274;18.908;2023-03-31T00:08:25;24.70;;;14.60;;
61897;SDS011;47850;50.274;18.908;2023-03-31T00:10:57;20.90;;;12.80;;
61897;SDS011;47850;50.274;18.908;2023-03-31T00:13:28;24.60;;;15.00;;
61897;SDS011;47850;50.274;18.908;2023-03-31T00:15:58;23.60;;;13.30;;
61897;SDS011;47850;50.274;18.908;2023-03-31T00:18:28;23.60;;;13.20;;
61897;SDS011;47850;50.274;18.908;2023-03-31T00:21:08;15.70;;;9.70;;
61897;SDS011;47850;50.274;18.908;2023-03-31T00:23:41;12.00;;;9.10;;
61897;SDS011;47850;50.274;18.908;2023-03-31T00:26:08;20.00;;;11.40;;
61897;SDS011;47850;50.274;18.908;2023-03-31T00:28:36;17.80;;;11.20;;
61897;SDS011;47850;50.274;18.908;2023-03-31T00:31:04;20.10;;;12.50;;
61897;SDS011;47850;50.274;18.908;2023-03-31T00:33:32;21.90;;;12.60;;
61897;SDS011;47850;50.274;18.908;2023-03-31T00:36:00;18.00;;;11.30;;
61897;SDS011;47850;50.274;18.908;2023-03-31T00:38:28;21.00;;;13.90;;
61897;SDS011;47850;50.274;18.908;2023-03-31T00:40:58;21.90;;;13.60;;
61897;SDS011;47850;50.274;18.908;2023-03-31T00:45:59;17.70;;;12.00;;
61897;SDS011;47850;50.274;18.908;2023-03-31T00:48:44;20.40;;;13.60;;
61897;SDS011;47850;50.274;18.908;2023-03-31T00:51:16;25.20;;;15.50;;
61897;SDS011;47850;50.274;18.908;2023-03-31T00:53:48;22.10;;;14.20;;
61897;SDS011;47850;50.274;18.908;2023-03-31T00:56:24;24.10;;;12.70;;
61897;SDS011;47850;50.274;18.908;2023-03-31T00:58:56;21.80;;;14.10;;
61897;SDS011;47850;50.274;18.908;2023-03-31T01:01:28;24.20;;;15.00;;
61897;SDS011;47850;50.274;18.908;2023-03-31T01:03:58;22.70;;;13.80;;
61897;SDS011;47850;50.274;18.908;2023-03-31T01:06:25;20.80;;;13.90;;
61897;SDS011;47850;50.274;18.908;2023-03-31T01:08:57;20.30;;;14.00;;
61897;SDS011;47850;50.274;18.908;2023-03-31T01:11:26;23.70;;;13.20;;
61897;SDS011;47850;50.274;18.908;2023-03-31T01:13:57;20.90;;;12.60;;
61897;SDS011;47850;50.274;18.908;2023-03-31T01:16:25;18.30;;;13.00;;
61897;SDS011;47850;50.274;18.908;2023-03-31T01:18:53;22.10;;;13.10;;
61897;SDS011;47850;50.274;18.908;2023-03-31T01:37:44;21.80;;;12.00;;
61897;SDS011;47850;50.274;18.908;2023-03-31T01:40:37;17.00;;;9.80;;
61897;SDS011;47850;50.274;18.908;2023-03-31T01:51:30;18.70;;;12.10;;
61897;SDS011;47850;50.274;18.908;2023-03-31T01:54:09;14.80;;;9.10;;
61897;SDS011;47850;50.274;18.908;2023-03-31T01:56:54;20.10;;;13.80;;
61897;SDS011;47850;50.274;18.908;2023-03-31T01:59:35;21.20;;;13.80;;
61897;SDS011;47850;50.274;18.908;2023-03-31T02:02:15;18.30;;;12.40;;
61897;SDS011;47850;50.274;18.908;2023-03-31T02:04:54;17.10;;;11.60;;
61897;SDS011;47850;50.274;18.908;2023-03-31T02:07:45;16.70;;;10.60;;
61897;SDS011;47850;50.274;18.908;2023-03-31T02:10:35;15.40;;;10.60;;
61897;SDS011;47850;50.274;18.908;2023-03-31T02:13:05;18.80;;;10.20;;
61897;SDS011;47850;50.274;18.908;2023-03-31T02:15:36;21.70;;;13.90;;
61897;SDS011;47850;50.274;18.908;2023-03-31T02:18:10;13.70;;;10.40;;
61897;SDS011;47850;50.274;18.908;2023-03-31T02:20:40;18.60;;;12.50;;
61897;SDS011;47850;50.274;18.908;2023-03-31T02:23:12;15.90;;;10.80;;
61897;SDS011;47850;50.274;18.908;2023-03-31T02:25:44;17.70;;;12.40;;
61897;SDS011;47850;50.274;18.908;2023-03-31T02:28:18;17.40;;;10.80;;
61897;SDS011;47850;50.274;18.908;2023-03-31T02:33:34;17.70;;;10.70;;
61897;SDS011;47850;50.274;18.908;2023-03-31T02:36:03;17.60;;;10.40;;
61897;SDS011;47850;50.274;18.908;2023-03-31T02:38:32;15.90;;;11.60;;
61897;SDS011;47850;50.274;18.908;2023-03-31T02:41:05;16.50;;;11.10;;
61897;SDS011;47850;50.274;18.908;2023-03-31T02:43:33;16.70;;;10.00;;
61897;SDS011;47850;50.274;18.908;2023-03-31T02:46:01;13.90;;;9.60;;
61897;SDS011;47850;50.274;18.908;2023-03-31T02:48:38;16.80;;;10.80;;
61897;SDS011;47850;50.274;18.908;2023-03-31T02:54:34;14.60;;;10.90;;
61897;SDS011;47850;50.274;18.908;2023-03-31T03:13:58;15.80;;;10.50;;
61897;SDS011;47850;50.274;18.908;2023-03-31T03:16:32;16.10;;;9.60;;
61897;SDS011;47850;50.274;18.908;2023-03-31T03:19:06;14.90;;;8.60;;
61897;SDS011;47850;50.274;18.908;2023-03-31T03:21:34;16.30;;;10.80;;
61897;SDS011;47850;50.274;18.908;2023-03-31T03:24:02;12.20;;;8.50;;
61897;SDS011;47850;50.274;18.908;2023-03-31T03:26:31;14.80;;;10.00;;
61897;SDS011;47850;50.274;18.908;2023-03-31T03:31:30;14.50;;;9.40;;
61897;SDS011;47850;50.274;18.908;2023-03-31T03:34:00;18.00;;;11.00;;
61897;SDS011;47850;50.274;18.908;2023-03-31T03:36:28;14.50;;;8.80;;
61897;SDS011;47850;50.274;18.908;2023-03-31T03:38:55;18.50;;;11.20;;
61897;SDS011;47850;50.274;18.908;2023-03-31T03:41:23;16.40;;;10.30;;
61897;SDS011;47850;50.274;18.908;2023-03-31T03:43:51;15.20;;;10.70;;
61897;SDS011;47850;50.274;18.908;2023-03-31T03:46:19;14.40;;;10.10;;
61897;SDS011;47850;50.274;18.908;2023-03-31T03:48:47;16.30;;;10.00;;
61897;SDS011;47850;50.274;18.908;2023-03-31T03:51:14;16.90;;;9.80;;
61897;SDS011;47850;50.274;18.908;2023-03-31T03:53:42;15.30;;;10.00;;
61897;SDS011;47850;50.274;18.908;2023-03-31T03:56:10;14.80;;;9.50;;
61897;SDS011;47850;50.274;18.908;2023-03-31T03:58:38;18.50;;;12.20;;
61897;SDS011;47850;50.274;18.908;2023-03-31T04:01:06;15.50;;;10.70;;
61897;SDS011;47850;50.274;18.908;2023-03-31T04:03:33;14.60;;;10.40;;
61897;SDS011;47850;50.274;18.908;2023-03-31T04:06:01;14.30;;;9.20;;
61897;SDS011;47850;50.274;18.908;2023-03-31T04:08:29;15.00;;;8.80;;
61897;SDS011;47850;50.274;18.908;2023-03-31T04:10:57;18.30;;;10.70;;
61897;SDS011;47850;50.274;18.908;2023-03-31T04:13:25;13.30;;;7.20;;
61897;SDS011;47850;50.274;18.908;2023-03-31T04:15:52;15.20;;;10.20;;
61897;SDS011;47850;50.274;18.908;2023-03-31T04:18:20;13.00;;;9.50;;
61897;SDS011;47850;50.274;18.908;2023-03-31T04:20:51;16.40;;;10.10;;
61897;SDS011;47850;50.274;18.908;2023-03-31T04:23:32;14.90;;;8.20;;
61897;SDS011;47850;50.274;18.908;2023-03-31T04:26:04;15.30;;;10.10;;
61897;SDS011;47850;50.274;18.908;2023-03-31T04:31:03;14.30;;;8.60;;
61897;SDS011;47850;50.274;18.908;2023-03-31T04:33:35;13.40;;;9.40;;
61897;SDS011;47850;50.274;18.908;2023-03-31T04:36:06;14.60;;;7.60;;
61897;SDS011;47850;50.274;18.908;2023-03-31T04:38:48;13.10;;;7.20;;
61897;SDS011;47850;50.274;18.908;2023-03-31T04:41:21;15.10;;;9.80;;
61897;SDS011;47850;50.274;18.908;2023-03-31T04:43:50;15.80;;;9.40;;
61897;SDS011;47850;50.274;18.908;2023-03-31T04:46:17;13.30;;;8.30;;
61897;SDS011;47850;50.274;18.908;2023-03-31T04:48:45;14.90;;;9.30;;
61897;SDS011;47850;50.274;18.908;2023-03-31T04:51:13;13.90;;;8.80;;
61897;SDS011;47850;50.274;18.908;2023-03-31T04:53:44;18.40;;;9.50;;
61897;SDS011;47850;50.274;18.908;2023-03-31T04:56:12;14.40;;;9.30;;
61897;SDS011;47850;50.274;18.908;2023-03-31T04:58:40;16.40;;;10.40;;
61897;SDS011;47850;50.274;18.908;2023-03-31T05:01:08;16.20;;;9.40;;
61897;SDS011;47850;50.274;18.908;2023-03-31T05:03:36;13.40;;;8.10;;
61897;SDS011;47850;50.274;18.908;2023-03-31T05:06:04;16.30;;;10.10;;
61897;SDS011;47850;50.274;18.908;2023-03-31T05:08:32;22.00;;;10.70;;
61897;SDS011;47850;50.274;18.908;2023-03-31T05:11:01;14.20;;;9.00;;
61897;SDS011;47850;50.274;18.908;2023-03-31T05:13:29;16.90;;;9.90;;
61897;SDS011;47850;50.274;18.908;2023-03-31T05:15:58;19.40;;;9.80;;
61897;SDS011;47850;50.274;18.908;2023-03-31T05:18:31;14.20;;;9.50;;
61897;SDS011;47850;50.274;18.908;2023-03-31T05:23:41;16.60;;;9.80;;
61897;SDS011;47850;50.274;18.908;2023-03-31T05:26:09;17.60;;;11.00;;
61897;SDS011;47850;50.274;18.908;2023-03-31T05:28:37;16.70;;;10.50;;
61897;SDS011;47850;50.274;18.908;2023-03-31T05:31:06;16.50;;;11.10;;
61897;SDS011;47850;50.274;18.908;2023-03-31T05:33:35;17.90;;;11.80;;
61897;SDS011;47850;50.274;18.908;2023-03-31T05:36:09;17.10;;;10.80;;
61897;SDS011;47850;50.274;18.908;2023-03-31T05:38:38;14.70;;;8.90;;
61897;SDS011;47850;50.274;18.908;2023-03-31T05:41:07;21.40;;;11.50;;
61897;SDS011;47850;50.274;18.908;2023-03-31T05:43:36;18.00;;;10.90;;
61897;SDS011;47850;50.274;18.908;2023-03-31T05:46:06;16.70;;;11.30;;
61897;SDS011;47850;50.274;18.908;2023-03-31T05:48:34;18.80;;;11.10;;
61897;SDS011;47850;50.274;18.908;2023-03-31T05:51:04;18.10;;;9.50;;
61897;SDS011;47850;50.274;18.908;2023-03-31T05:53:32;15.20;;;8.80;;
61897;SDS011;47850;50.274;18.908;2023-03-31T05:56:01;17.80;;;10.00;;
61897;SDS011;47850;50.274;18.908;2023-03-31T05:58:33;17.40;;;10.90;;
61897;SDS011;47850;50.274;18.908;2023-03-31T06:01:11;14.50;;;9.90;;
61897;SDS011;47850;50.274;18.908;2023-03-31T06:03:40;16.50;;;9.30;;
61897;SDS011;47850;50.274;18.908;2023-03-31T06:06:09;10.90;;;7.10;;
61897;SDS011;47850;50.274;18.908;2023-03-31T06:08:39;16.10;;;9.10;;
61897;SDS011;47850;50.274;18.908;2023-03-31T06:11:08;11.90;;;7.20;;
61897;SDS011;47850;50.274;18.908;2023-03-31T06:16:06;12.30;;;7.00;;
61897;SDS011;47850;50.274;18.908;2023-03-31T06:18:37;12.10;;;7.10;;
61897;SDS011;47850;50.274;18.908;2023-03-31T06:21:05;12.40;;;7.00;;
61897;SDS011;47850;50.274;18.908;2023-03-31T06:23:34;11.40;;;6.40;;
61897;SDS011;47850;50.274;18.908;2023-03-31T06:26:03;11.00;;;7.10;;
61897;SDS011;47850;50.274;18.908;2023-03-31T06:28:34;14.00;;;7.00;;
61897;SDS011;47850;50.274;18.908;2023-03-31T06:31:03;7.50;;;5.10;;
61897;SDS011;47850;50.274;18.908;2023-03-31T06:33:35;16.80;;;6.60;;
61897;SDS011;47850;50.274;18.908;2023-03-31T06:36:03;12.00;;;6.50;;
61897;SDS011;47850;50.274;18.908;2023-03-31T06:38:33;9.60;;;5.10;;
61897;SDS011;47850;50.274;18.908;2023-03-31T06:41:03;9.70;;;5.40;;
61897;SDS011;47850;50.274;18.908;2023-03-31T06:43:32;10.00;;;6.10;;
61897;SDS011;47850;50.274;18.908;2023-03-31T06:46:01;10.20;;;5.80;;
61897;SDS011;47850;50.274;18.908;2023-03-31T06:48:29;8.40;;;4.30;;
61897;SDS011;47850;50.274;18.908;2023-03-31T06:51:00;8.40;;;4.70;;
61897;SDS011;47850;50.274;18.908;2023-03-31T06:53:30;7.20;;;3.40;;
61897;SDS011;47850;50.274;18.908;2023-03-31T06:55:59;12.80;;;4.80;;
61897;SDS011;47850;50.274;18.908;2023-03-31T06:58:27;8.30;;;5.00;;
61897;SDS011;47850;50.274;18.908;2023-03-31T07:00:55;6.50;;;3.50;;
61897;SDS011;47850;50.274;18.908;2023-03-31T07:03:23;9.60;;;5.50;;
61897;SDS011;47850;50.274;18.908;2023-03-31T07:05:52;9.60;;;4.70;;
61897;SDS011;47850;50.274;18.908;2023-03-31T07:08:21;5.40;;;3.30;;
61897;SDS011;47850;50.274;18.908;2023-03-31T07:10:57;7.60;;;4.60;;
61897;SDS011;47850;50.274;18.908;2023-03-31T07:13:27;6.60;;;3.60;;
61897;SDS011;47850;50.274;18.908;2023-03-31T07:15:56;4.90;;;3.30;;
61897;SDS011;47850;50.274;18.908;2023-03-31T07:18:24;6.90;;;3.90;;
61897;SDS011;47850;50.274;18.908;2023-03-31T07:20:52;5.00;;;3.10;;
61897;SDS011;47850;50.274;18.908;2023-03-31T07:23:20;8.50;;;3.70;;
61897;SDS011;47850;50.274;18.908;2023-03-31T07:25:48;9.20;;;3.80;;
61897;SDS011;47850;50.274;18.908;2023-03-31T07:28:16;5.00;;;2.90;;
61897;SDS011;47850;50.274;18.908;2023-03-31T07:30:43;7.30;;;3.40;;
61897;SDS011;47850;50.274;18.908;2023-03-31T07:33:11;10.50;;;3.50;;
61897;SDS011;47850;50.274;18.908;2023-03-31T07:35:40;11.40;;;4.40;;
61897;SDS011;47850;50.274;18.908;2023-03-31T07:38:11;8.80;;;4.00;;
61897;SDS011;47850;50.274;18.908;2023-03-31T07:40:39;8.50;;;3.90;;
61897;SDS011;47850;50.274;18.908;2023-03-31T07:43:10;9.60;;;4.00;;
61897;SDS011;47850;50.274;18.908;2023-03-31T07:45:38;7.60;;;4.20;;
61897;SDS011;47850;50.274;18.908;2023-03-31T07:48:07;7.00;;;4.00;;
61897;SDS011;47850;50.274;18.908;2023-03-31T07:50:35;7.30;;;4.10;;
61897;SDS011;47850;50.274;18.908;2023-03-31T07:53:03;8.30;;;3.60;;
61897;SDS011;47850;50.274;18.908;2023-03-31T07:55:30;5.10;;;2.70;;
61897;SDS011;47850;50.274;18.908;2023-03-31T07:57:58;10.50;;;4.30;;
61897;SDS011;47850;50.274;18.908;2023-03-31T08:00:26;6.90;;;3.30;;
61897;SDS011;47850;50.274;18.908;2023-03-31T08:02:54;8.00;;;3.40;;
61897;SDS011;47850;50.274;18.908;2023-03-31T08:05:22;7.50;;;3.70;;
61897;SDS011;47850;50.274;18.908;2023-03-31T08:07:50;5.50;;;3.10;;
61897;SDS011;47850;50.274;18.908;2023-03-31T08:10:20;5.60;;;2.60;;
61897;SDS011;47850;50.274;18.908;2023-03-31T08:12:49;8.10;;;3.70;;
61897;SDS011;47850;50.274;18.908;2023-03-31T08:15:17;5.40;;;3.30;;
61897;SDS011;47850;50.274;18.908;2023-03-31T08:17:45;7.60;;;3.50;;
61897;SDS011;47850;50.274;18.908;2023-03-31T08:20:13;6.00;;;3.50;;
61897;SDS011;47850;50.274;18.908;2023-03-31T08:22:41;6.80;;;3.20;;
61897;SDS011;47850;50.274;18.908;2023-03-31T08:25:09;9.50;;;4.00;;
61897;SDS011;47850;50.274;18.908;2023-03-31T08:27:38;6.10;;;3.30;;
61897;SDS011;47850;50.274;18.908;2023-03-31T08:30:08;7.00;;;3.40;;
61897;SDS011;47850;50.274;18.908;2023-03-31T08:35:05;6.10;;;3.00;;
61897;SDS011;47850;50.274;18.908;2023-03-31T08:37:34;6.30;;;3.50;;
61897;SDS011;47850;50.274;18.908;2023-03-31T08:40:04;8.40;;;3.70;;
61897;SDS011;47850;50.274;18.908;2023-03-31T08:42:45;8.50;;;3.60;;
61897;SDS011;47850;50.274;18.908;2023-03-31T08:45:24;4.40;;;2.90;;
61897;SDS011;47850;50.274;18.908;2023-03-31T08:48:01;6.30;;;3.00;;
61897;SDS011;47850;50.274;18.908;2023-03-31T08:50:49;7.00;;;3.90;;
61897;SDS011;47850;50.274;18.908;2023-03-31T08:53:32;9.20;;;3.80;;
61897;SDS011;47850;50.274;18.908;2023-03-31T08:56:06;8.30;;;4.60;;
61897;SDS011;47850;50.274;18.908;2023-03-31T08:58:42;7.60;;;3.70;;
61897;SDS011;47850;50.274;18.908;2023-03-31T09:09:10;8.20;;;3.20;;
61897;SDS011;47850;50.274;18.908;2023-03-31T09:11:46;9.30;;;4.20;;
61897;SDS011;47850;50.274;18.908;2023-03-31T09:14:24;6.40;;;3.20;;
61897;SDS011;47850;50.274;18.908;2023-03-31T09:17:06;9.10;;;3.40;;
61897;SDS011;47850;50.274;18.908;2023-03-31T09:19:40;11.20;;;4.50;;
61897;SDS011;47850;50.274;18.908;2023-03-31T09:22:16;7.80;;;3.70;;
61897;SDS011;47850;50.274;18.908;2023-03-31T09:24:59;11.00;;;4.10;;
61897;SDS011;47850;50.274;18.908;2023-03-31T09:27:48;6.10;;;3.50;;
61897;SDS011;47850;50.274;18.908;2023-03-31T09:30:29;7.30;;;2.80;;
61897;SDS011;47850;50.274;18.908;2023-03-31T09:33:11;8.20;;;3.60;;
61897;SDS011;47850;50.274;18.908;2023-03-31T09:35:43;5.80;;;2.70;;
61897;SDS011;47850;50.274;18.908;2023-03-31T09:38:13;5.90;;;2.80;;
61897;SDS011;47850;50.274;18.908;2023-03-31T09:40:42;8.00;;;3.80;;
61897;SDS011;47850;50.274;18.908;2023-03-31T09:43:24;7.10;;;2.90;;
61897;SDS011;47850;50.274;18.908;2023-03-31T09:45:53;4.80;;;2.60;;
61897;SDS011;47850;50.274;18.908;2023-03-31T09:48:24;7.90;;;2.60;;
61897;SDS011;47850;50.274;18.908;2023-03-31T09:50:56;4.90;;;2.40;;
61897;SDS011;47850;50.274;18.908;2023-03-31T09:56:06;4.80;;;2.10;;
61897;SDS011;47850;50.274;18.908;2023-03-31T09:58:41;6.00;;;2.40;;
61897;SDS011;47850;50.274;18.908;2023-03-31T10:01:11;5.80;;;2.70;;
